createdAt,value
2024-02-13T00:01:08.673Z,3.70
2024-02-13T00:03:37.632Z,3.70
2024-02-13T00:06:06.552Z,3.70
2024-02-13T00:08:44.751Z,3.70
2024-02-13T00:11:16.547Z,3.70
2024-02-13T00:13:47.631Z,3.70
2024-02-13T00:16:19.362Z,3.70
2024-02-13T00:18:49.018Z,3.60
2024-02-13T00:21:17.876Z,3.70
2024-02-13T00:23:46.475Z,3.60
2024-02-13T00:26:15.037Z,3.70
2024-02-13T00:28:45.271Z,3.50
2024-02-13T00:31:13.915Z,3.60
2024-02-13T00:33:44.799Z,3.60
2024-02-13T00:36:17.035Z,3.60
2024-02-13T00:38:47.228Z,3.60
2024-02-13T00:41:16.413Z,3.60
2024-02-13T00:43:45.841Z,3.60
2024-02-13T00:46:14.456Z,3.60
2024-02-13T00:48:44.893Z,3.60
2024-02-13T00:51:13.610Z,3.60
2024-02-13T00:53:42.273Z,3.60
2024-02-13T00:56:12.330Z,3.60
2024-02-13T00:58:44.633Z,3.70
2024-02-13T01:01:14.045Z,3.60
2024-02-13T01:03:44.113Z,3.60
2024-02-13T01:06:12.696Z,3.60
2024-02-13T01:08:42.487Z,3.60
2024-02-13T01:11:11.157Z,3.70
2024-02-13T01:13:39.786Z,3.70
2024-02-13T01:16:08.532Z,3.60
2024-02-13T01:18:37.450Z,3.60
2024-02-13T01:21:12.507Z,3.60
2024-02-13T01:23:41.082Z,3.60
2024-02-13T01:26:09.737Z,3.70
2024-02-13T01:28:38.538Z,3.60
2024-02-13T01:31:07.276Z,3.70
2024-02-13T01:33:36.188Z,3.70
2024-02-13T01:36:07.493Z,3.70
2024-02-13T01:38:37.770Z,3.70
2024-02-13T01:41:06.963Z,3.80
2024-02-13T01:43:35.641Z,3.80
2024-02-13T01:46:07.395Z,3.80
2024-02-13T01:48:38.271Z,3.80
2024-02-13T01:51:08.064Z,3.80
2024-02-13T01:53:39.248Z,3.80
2024-02-13T01:56:10.094Z,3.80
2024-02-13T01:58:39.651Z,3.80
2024-02-13T02:01:10.199Z,3.80
2024-02-13T02:03:40.343Z,3.80
2024-02-13T02:06:09.244Z,3.80
2024-02-13T02:08:40.835Z,3.80
2024-02-13T02:11:11.652Z,3.80
2024-02-13T02:13:40.481Z,4.00
2024-02-13T02:16:09.038Z,3.80
2024-02-13T02:18:38.128Z,3.80
2024-02-13T02:21:07.446Z,3.80
2024-02-13T02:23:36.699Z,3.80
2024-02-13T02:26:07.996Z,3.70
2024-02-13T02:28:36.947Z,3.80
2024-02-13T02:31:06.372Z,3.70
2024-02-13T02:33:35.019Z,3.70
2024-02-13T02:36:03.648Z,3.80
2024-02-13T02:38:33.592Z,3.80
2024-02-13T02:41:02.129Z,3.80
2024-02-13T02:43:32.134Z,4.00
2024-02-13T02:46:01.047Z,3.80
2024-02-13T02:48:30.154Z,3.80
2024-02-13T02:50:59.743Z,3.90
2024-02-13T02:53:28.700Z,4.00
2024-02-13T02:55:57.253Z,3.90
2024-02-13T02:58:25.764Z,3.90
2024-02-13T03:00:56.012Z,3.90
2024-02-13T03:03:24.590Z,4.00
2024-02-13T03:05:53.743Z,4.00
2024-02-13T03:08:22.656Z,3.90
2024-02-13T03:10:51.275Z,4.00
2024-02-13T03:13:19.942Z,4.00
2024-02-13T03:15:48.958Z,4.10
2024-02-13T03:18:19.571Z,4.00
2024-02-13T03:20:48.597Z,4.00
2024-02-13T03:23:17.688Z,4.10
2024-02-13T03:25:46.396Z,4.10
2024-02-13T03:28:15.103Z,4.10
2024-02-13T03:30:44.231Z,4.10
2024-02-13T03:33:12.951Z,4.10
2024-02-13T03:35:43.256Z,4.10
2024-02-13T03:38:11.869Z,4.10
2024-02-13T03:40:40.514Z,4.10
2024-02-13T03:43:09.067Z,4.00
2024-02-13T03:45:37.586Z,4.00
2024-02-13T03:48:07.198Z,4.00
2024-02-13T03:50:35.905Z,4.00
2024-02-13T03:53:07.466Z,3.90
2024-02-13T03:55:36.181Z,3.90
2024-02-13T03:58:04.928Z,3.90
2024-02-13T04:00:34.356Z,3.90
2024-02-13T04:03:03.112Z,3.90
2024-02-13T04:05:36.467Z,3.90
2024-02-13T04:08:07.460Z,3.90
2024-02-13T04:10:36.917Z,3.90
2024-02-13T04:13:07.889Z,3.80
2024-02-13T04:15:38.835Z,3.80
2024-02-13T04:18:08.946Z,3.80
2024-02-13T04:20:40.157Z,3.80
2024-02-13T04:23:10.480Z,3.80
2024-02-13T04:25:39.164Z,3.70
2024-02-13T04:28:06.888Z,3.70
2024-02-13T04:30:41.604Z,3.80
2024-02-13T04:33:11.299Z,3.70
2024-02-13T04:35:41.009Z,3.60
2024-02-13T04:38:11.115Z,3.60
2024-02-13T04:40:40.174Z,3.60
2024-02-13T04:43:08.704Z,3.50
2024-02-13T04:45:37.303Z,3.50
2024-02-13T04:48:06.770Z,3.50
2024-02-13T04:50:35.641Z,3.50
2024-02-13T04:53:04.310Z,3.50
2024-02-13T04:55:35.254Z,3.50
2024-02-13T04:58:03.960Z,3.50
2024-02-13T05:00:38.068Z,3.40
2024-02-13T05:03:18.224Z,3.50
2024-02-13T05:06:04.337Z,3.50
2024-02-13T05:08:33.109Z,3.40
2024-02-13T05:11:03.902Z,3.50
2024-02-13T05:13:33.335Z,3.50
2024-02-13T05:16:03.066Z,3.40
2024-02-13T05:18:32.064Z,3.40
2024-02-13T05:21:00.763Z,3.50
2024-02-13T05:23:30.421Z,3.50
2024-02-13T05:25:59.441Z,3.50
2024-02-13T05:28:29.504Z,3.50
2024-02-13T05:30:58.037Z,3.40
2024-02-13T05:33:26.748Z,3.40
2024-02-13T05:35:55.511Z,3.40
2024-02-13T05:38:24.275Z,3.40
2024-02-13T05:40:52.919Z,3.40
2024-02-13T05:43:22.045Z,3.40
2024-02-13T05:45:51.889Z,3.50
2024-02-13T05:48:20.745Z,3.40
2024-02-13T05:50:51.645Z,3.40
2024-02-13T05:53:21.158Z,3.40
2024-02-13T05:55:50.085Z,3.40
2024-02-13T05:58:18.901Z,3.40
2024-02-13T06:00:47.761Z,3.50
2024-02-13T06:03:17.718Z,3.50
2024-02-13T06:05:47.921Z,3.50
2024-02-13T06:08:17.198Z,3.50
2024-02-13T06:10:46.545Z,3.50
2024-02-13T06:13:16.395Z,3.60
2024-02-13T06:15:45.369Z,3.60
2024-02-13T06:18:14.223Z,3.60
2024-02-13T06:20:44.628Z,3.60
2024-02-13T06:23:13.275Z,3.60
2024-02-13T06:25:41.844Z,3.60
2024-02-13T06:28:10.378Z,3.60
2024-02-13T06:30:40.569Z,3.80
2024-02-13T06:33:09.639Z,3.60
2024-02-13T06:35:38.426Z,3.60
2024-02-13T06:38:08.614Z,3.70
2024-02-13T06:40:37.139Z,3.60
2024-02-13T06:43:06.100Z,3.60
2024-02-13T06:45:35.856Z,3.60
2024-02-13T06:48:04.893Z,3.70
2024-02-13T06:50:33.607Z,3.60
2024-02-13T06:53:02.269Z,3.70
2024-02-13T06:55:33.560Z,3.60
2024-02-13T06:58:02.497Z,3.70
2024-02-13T07:00:32.767Z,3.70
2024-02-13T07:03:01.775Z,3.80
2024-02-13T07:05:31.060Z,3.70
2024-02-13T07:08:00.843Z,3.70
2024-02-13T07:10:31.492Z,3.60
2024-02-13T07:13:00.156Z,3.60
2024-02-13T07:15:28.914Z,3.60
2024-02-13T07:18:01.090Z,3.60
2024-02-13T07:20:30.643Z,3.60
2024-02-13T07:22:59.285Z,3.60
2024-02-13T07:25:27.926Z,3.60
2024-02-13T07:27:58.040Z,3.70
2024-02-13T07:30:27.316Z,3.70
2024-02-13T07:32:57.847Z,3.80
2024-02-13T07:35:27.796Z,3.80
2024-02-13T07:37:56.719Z,3.80
2024-02-13T07:40:25.248Z,3.90
2024-02-13T07:42:54.190Z,3.90
2024-02-13T07:45:25.923Z,4.00
2024-02-13T07:47:54.915Z,4.00
2024-02-13T07:50:23.702Z,4.10
2024-02-13T07:52:52.326Z,4.10
2024-02-13T07:55:21.212Z,4.20
2024-02-13T07:57:51.493Z,4.30
2024-02-13T08:00:22.177Z,4.40
2024-02-13T08:02:54.156Z,4.50
2024-02-13T08:05:22.923Z,4.70
2024-02-13T08:07:51.068Z,4.80
2024-02-13T08:10:19.783Z,5.00
2024-02-13T08:12:48.486Z,5.00
2024-02-13T08:15:17.232Z,5.10
2024-02-13T08:17:45.886Z,5.10
2024-02-13T08:20:17.362Z,5.10
2024-02-13T08:22:46.200Z,5.10
2024-02-13T08:25:15.401Z,5.20
2024-02-13T08:27:44.041Z,5.20
2024-02-13T08:30:14.201Z,5.20
2024-02-13T08:32:45.567Z,5.20
2024-02-13T08:35:16.507Z,5.20
2024-02-13T08:37:45.357Z,5.30
2024-02-13T08:40:16.370Z,5.30
2024-02-13T08:42:46.115Z,5.40
2024-02-13T08:45:15.054Z,5.40
2024-02-13T08:47:43.809Z,5.40
2024-02-13T08:50:14.572Z,5.50
2024-02-13T08:52:45.042Z,5.50
2024-02-13T08:55:14.598Z,5.60
2024-02-13T08:57:43.350Z,5.50
2024-02-13T09:00:16.921Z,5.40
2024-02-13T09:02:47.263Z,5.40
2024-02-13T09:05:16.076Z,5.40
2024-02-13T09:07:46.193Z,5.50
2024-02-13T09:10:14.897Z,5.50
2024-02-13T09:12:46.563Z,5.50
2024-02-13T09:15:15.498Z,5.60
2024-02-13T09:17:44.769Z,5.60
2024-02-13T09:20:16.501Z,5.70
2024-02-13T09:22:47.087Z,5.80
2024-02-13T09:25:17.468Z,5.90
2024-02-13T09:27:47.899Z,6.10
2024-02-13T09:30:18.100Z,6.20
2024-02-13T09:32:47.863Z,6.30
2024-02-13T09:35:18.133Z,6.30
2024-02-13T09:37:48.716Z,6.40
2024-02-13T09:40:19.131Z,6.50
2024-02-13T09:42:49.150Z,6.60
2024-02-13T09:45:19.320Z,6.70
2024-02-13T09:47:49.022Z,6.70
2024-02-13T09:50:18.116Z,6.80
2024-02-13T09:52:50.751Z,6.80
2024-02-13T09:55:21.109Z,6.80
2024-02-13T09:57:51.424Z,6.90
2024-02-13T10:00:21.253Z,6.90
2024-02-13T10:02:50.598Z,7.00
2024-02-13T10:05:22.175Z,7.00
2024-02-13T10:07:52.679Z,7.10
2024-02-13T10:10:21.434Z,7.00
2024-02-13T10:12:52.956Z,7.00
2024-02-13T10:15:21.930Z,7.00
2024-02-13T10:17:52.572Z,7.00
2024-02-13T10:20:21.620Z,7.00
2024-02-13T10:22:55.873Z,7.00
2024-02-13T10:25:30.630Z,7.00
2024-02-13T10:28:01.431Z,7.10
2024-02-13T10:30:31.284Z,7.20
2024-02-13T10:33:02.013Z,7.30
2024-02-13T10:35:31.974Z,7.30
2024-02-13T10:38:04.180Z,7.40
2024-02-13T10:40:35.455Z,7.50
2024-02-13T10:43:04.951Z,7.50
2024-02-13T10:45:34.928Z,7.60
2024-02-13T10:48:09.094Z,7.70
2024-02-13T10:50:39.354Z,7.70
2024-02-13T10:53:09.882Z,7.80
2024-02-13T10:55:42.000Z,7.80
2024-02-13T10:58:24.042Z,7.90
2024-02-13T11:00:57.973Z,7.90
2024-02-13T11:03:28.426Z,8.00
2024-02-13T11:05:57.311Z,8.10
2024-02-13T11:08:30.074Z,8.20
2024-02-13T11:11:01.700Z,8.20
2024-02-13T11:13:31.119Z,8.30
2024-02-13T11:15:59.916Z,8.40
2024-02-13T11:18:30.401Z,8.60
2024-02-13T11:21:03.467Z,8.70
2024-02-13T11:23:35.116Z,8.90
2024-02-13T11:26:03.957Z,9.10
2024-02-13T11:28:36.592Z,9.20
2024-02-13T11:31:15.884Z,9.20
2024-02-13T11:34:06.007Z,9.30
2024-02-13T11:36:36.819Z,9.40
2024-02-13T11:39:08.387Z,9.40
2024-02-13T11:41:38.083Z,9.50
2024-02-13T11:44:10.206Z,9.50
2024-02-13T11:46:51.719Z,9.60
2024-02-13T11:49:20.681Z,9.70
2024-02-13T11:51:49.991Z,9.70
2024-02-13T11:54:21.002Z,9.80
2024-02-13T11:56:51.816Z,10.00
2024-02-13T11:59:22.378Z,10.10
2024-02-13T12:01:52.047Z,10.10
2024-02-13T12:04:20.958Z,10.20
2024-02-13T12:06:50.653Z,10.20
2024-02-13T12:09:20.885Z,10.30
2024-02-13T12:11:50.879Z,10.40
2024-02-13T12:14:19.744Z,10.50
2024-02-13T12:16:49.039Z,10.60
2024-02-13T12:19:18.280Z,10.70
2024-02-13T12:21:46.952Z,10.90
2024-02-13T12:24:15.538Z,10.80
2024-02-13T12:26:45.573Z,10.90
2024-02-13T12:29:17.169Z,10.90
2024-02-13T12:31:49.319Z,10.90
2024-02-13T12:34:18.434Z,11.00
2024-02-13T12:36:47.182Z,11.00
2024-02-13T12:39:21.467Z,11.00
2024-02-13T12:41:52.587Z,11.10
2024-02-13T12:44:22.108Z,11.10
2024-02-13T12:46:52.527Z,11.20
2024-02-13T12:49:23.271Z,11.20
2024-02-13T12:51:53.492Z,11.10
2024-02-13T12:54:24.053Z,11.10
2024-02-13T12:56:58.048Z,11.00
2024-02-13T12:59:27.098Z,11.00
2024-02-13T13:01:56.194Z,11.10
2024-02-13T13:04:25.961Z,11.10
2024-02-13T13:06:55.950Z,11.00
2024-02-13T13:09:28.655Z,11.00
2024-02-13T13:12:00.015Z,10.90
2024-02-13T13:14:29.176Z,10.90
2024-02-13T13:16:58.344Z,10.90
2024-02-13T13:19:30.589Z,10.80
2024-02-13T13:21:59.741Z,10.80
2024-02-13T13:24:30.070Z,10.80
2024-02-13T13:27:00.323Z,10.80
2024-02-13T13:29:31.039Z,10.70
2024-02-13T13:32:00.807Z,10.70
2024-02-13T13:34:29.664Z,10.70
2024-02-13T13:36:58.752Z,10.60
2024-02-13T13:39:30.508Z,10.60
2024-02-13T13:42:10.318Z,10.60
2024-02-13T13:44:41.572Z,10.60
2024-02-13T13:47:10.213Z,10.50
2024-02-13T13:49:39.384Z,10.50
2024-02-13T13:52:08.762Z,10.50
2024-02-13T13:54:37.402Z,10.50
2024-02-13T13:57:07.927Z,10.60
2024-02-13T13:59:36.672Z,10.70
2024-02-13T14:02:05.597Z,10.80
2024-02-13T14:04:34.969Z,10.90
2024-02-13T14:07:03.702Z,11.00
2024-02-13T14:09:32.345Z,11.10
2024-02-13T14:12:06.595Z,11.10
2024-02-13T14:14:36.773Z,11.20
2024-02-13T14:17:07.583Z,11.20
2024-02-13T14:19:36.964Z,11.20
2024-02-13T14:22:12.608Z,11.20
2024-02-13T14:24:41.457Z,11.20
2024-02-13T14:27:11.955Z,11.20
2024-02-13T14:29:44.025Z,11.20
2024-02-13T14:32:14.077Z,11.10
2024-02-13T14:34:42.830Z,11.10
2024-02-13T14:37:12.134Z,11.10
2024-02-13T14:39:41.605Z,11.10
2024-02-13T14:42:10.364Z,11.00
2024-02-13T14:44:39.432Z,11.00
2024-02-13T14:47:09.339Z,11.00
2024-02-13T14:49:38.024Z,10.90
2024-02-13T14:52:07.007Z,10.90
2024-02-13T14:54:39.147Z,10.80
2024-02-13T14:57:07.902Z,10.80
2024-02-13T14:59:38.494Z,10.80
2024-02-13T15:02:08.753Z,10.70
2024-02-13T15:04:39.169Z,10.70
2024-02-13T15:07:07.960Z,10.70
2024-02-13T15:09:38.021Z,10.70
2024-02-13T15:12:08.601Z,10.70
2024-02-13T15:14:37.319Z,10.60
2024-02-13T15:17:08.211Z,10.60
2024-02-13T15:19:41.135Z,10.50
2024-02-13T15:22:11.897Z,10.50
2024-02-13T15:24:42.917Z,10.50
2024-02-13T15:27:11.953Z,10.50
2024-02-13T15:29:43.588Z,10.40
2024-02-13T15:32:15.313Z,10.30
2024-02-13T15:34:47.743Z,10.30
2024-02-13T15:37:43.085Z,10.30
2024-02-13T15:40:26.374Z,10.20
2024-02-13T15:43:12.316Z,10.20
2024-02-13T15:45:58.150Z,10.10
2024-02-13T15:48:28.042Z,10.10
2024-02-13T15:50:59.376Z,10.10
2024-02-13T15:53:28.939Z,10.10
2024-02-13T15:55:57.737Z,10.10
2024-02-13T15:58:27.395Z,10.10
2024-02-13T16:00:57.336Z,10.00
2024-02-13T16:03:25.985Z,9.90
2024-02-13T16:05:55.998Z,10.10
2024-02-13T16:08:26.990Z,9.90
2024-02-13T16:10:56.486Z,10.00
2024-02-13T16:13:27.655Z,9.90
2024-02-13T16:15:57.929Z,9.90
2024-02-13T16:18:26.760Z,9.80
2024-02-13T16:20:55.581Z,9.80
2024-02-13T16:23:27.276Z,9.80
2024-02-13T16:25:55.943Z,9.80
2024-02-13T16:28:24.545Z,9.60
2024-02-13T16:30:53.227Z,9.60
2024-02-13T16:33:21.895Z,9.60
2024-02-13T16:35:50.699Z,9.60
2024-02-13T16:38:19.868Z,9.60
2024-02-13T16:40:49.897Z,9.50
2024-02-13T16:43:18.610Z,9.50
2024-02-13T16:45:48.070Z,9.50
2024-02-13T16:48:18.236Z,9.50
2024-02-13T16:50:47.270Z,9.40
2024-02-13T16:53:16.025Z,9.40
2024-02-13T16:55:45.456Z,9.40
2024-02-13T16:58:15.526Z,9.40
2024-02-13T17:00:44.317Z,9.30
2024-02-13T17:03:14.277Z,9.20
2024-02-13T17:05:44.194Z,9.10
2024-02-13T17:08:14.090Z,8.90
2024-02-13T17:10:43.289Z,8.80
2024-02-13T17:13:14.491Z,8.70
2024-02-13T17:15:44.620Z,8.60
2024-02-13T17:18:13.351Z,8.50
2024-02-13T17:20:42.076Z,8.40
2024-02-13T17:23:10.682Z,8.30
2024-02-13T17:25:39.739Z,8.20
2024-02-13T17:28:08.506Z,8.20
2024-02-13T17:30:37.529Z,8.10
2024-02-13T17:33:07.662Z,8.10
2024-02-13T17:35:36.384Z,8.10
2024-02-13T17:38:05.169Z,8.00
2024-02-13T17:40:33.766Z,7.90
2024-02-13T17:43:02.434Z,8.10
2024-02-13T17:45:30.981Z,7.80
2024-02-13T17:48:00.304Z,7.80
2024-02-13T17:50:30.433Z,7.80
2024-02-13T17:52:59.080Z,7.80
2024-02-13T17:55:27.823Z,7.80
2024-02-13T17:57:56.523Z,7.70
2024-02-13T18:00:25.121Z,7.70
2024-02-13T18:02:54.807Z,7.70
2024-02-13T18:05:23.650Z,7.70
2024-02-13T18:07:54.167Z,7.70
2024-02-13T18:10:22.893Z,7.70
2024-02-13T18:12:51.522Z,7.80
2024-02-13T18:15:20.238Z,7.70
2024-02-13T18:17:49.948Z,7.70
2024-02-13T18:20:19.504Z,7.70
2024-02-13T18:22:48.970Z,7.70
2024-02-13T18:25:18.990Z,7.70
2024-02-13T18:27:47.613Z,7.70
2024-02-13T18:30:16.883Z,7.70
2024-02-13T18:32:45.859Z,7.70
2024-02-13T18:35:14.500Z,7.70
2024-02-13T18:37:43.127Z,7.70
2024-02-13T18:40:12.867Z,7.60
2024-02-13T18:42:42.808Z,7.60
2024-02-13T18:45:11.534Z,7.60
2024-02-13T18:47:40.487Z,7.60
2024-02-13T18:50:10.696Z,7.60
2024-02-13T18:52:39.424Z,7.60
2024-02-13T18:55:10.055Z,7.60
2024-02-13T18:57:39.234Z,7.60
2024-02-13T19:00:11.408Z,7.60
2024-02-13T19:02:40.711Z,7.60
2024-02-13T19:05:09.608Z,7.60
2024-02-13T19:07:38.230Z,7.60
2024-02-13T19:10:07.987Z,7.60
2024-02-13T19:12:36.714Z,7.60
2024-02-13T19:15:05.949Z,7.60
2024-02-13T19:17:36.831Z,7.70
2024-02-13T19:20:08.703Z,7.70
2024-02-13T19:22:37.388Z,7.70
2024-02-13T19:25:06.711Z,7.60
2024-02-13T19:27:36.213Z,7.60
2024-02-13T19:30:06.063Z,7.80
2024-02-13T19:32:36.155Z,7.60
2024-02-13T19:35:06.083Z,7.60
2024-02-13T19:37:34.752Z,7.70
2024-02-13T19:40:03.759Z,7.70
2024-02-13T19:42:32.498Z,7.70
2024-02-13T19:45:01.235Z,7.70
2024-02-13T19:47:30.523Z,7.70
2024-02-13T19:50:00.765Z,7.70
2024-02-13T19:52:30.054Z,7.70
2024-02-13T19:54:58.860Z,7.70
2024-02-13T19:57:28.202Z,7.70
2024-02-13T19:59:57.438Z,7.70
2024-02-13T20:02:26.569Z,7.80
2024-02-13T20:04:58.558Z,7.80
2024-02-13T20:07:29.077Z,8.00
2024-02-13T20:09:58.205Z,7.80
2024-02-13T20:12:27.973Z,7.80
2024-02-13T20:14:57.229Z,7.90
2024-02-13T20:17:26.132Z,7.80
2024-02-13T20:19:56.436Z,7.90
2024-02-13T20:22:25.175Z,8.00
2024-02-13T20:24:55.814Z,7.90
2024-02-13T20:27:24.582Z,8.00
2024-02-13T20:29:53.434Z,8.00
2024-02-13T20:32:22.110Z,8.00
2024-02-13T20:34:51.287Z,8.00
2024-02-13T20:37:21.298Z,8.00
2024-02-13T20:39:50.880Z,8.10
2024-02-13T20:42:23.029Z,8.10
2024-02-13T20:44:51.943Z,8.10
2024-02-13T20:47:21.861Z,8.10
2024-02-13T20:49:50.874Z,8.20
2024-02-13T20:52:19.473Z,8.20
2024-02-13T20:54:49.790Z,8.20
2024-02-13T20:57:19.809Z,8.20
2024-02-13T20:59:48.553Z,8.20
2024-02-13T21:02:17.523Z,8.20
2024-02-13T21:04:48.480Z,8.20
2024-02-13T21:07:17.431Z,8.30
2024-02-13T21:09:48.114Z,8.30
2024-02-13T21:12:17.018Z,8.30
2024-02-13T21:14:47.060Z,8.30
2024-02-13T21:17:17.248Z,8.30
2024-02-13T21:19:45.901Z,8.40
2024-02-13T21:22:31.950Z,8.40
2024-02-13T21:25:00.669Z,8.40
2024-02-13T21:27:29.239Z,8.40
2024-02-13T21:29:59.251Z,8.40
2024-02-13T21:32:27.956Z,8.50
2024-02-13T21:34:56.670Z,8.50
2024-02-13T21:37:25.281Z,8.50
2024-02-13T21:39:53.856Z,8.50
2024-02-13T21:42:22.479Z,8.60
2024-02-13T21:44:51.063Z,8.60
2024-02-13T21:47:21.068Z,8.60
2024-02-13T21:49:51.079Z,8.60
2024-02-13T21:52:19.817Z,8.60
2024-02-13T21:54:48.408Z,8.60
2024-02-13T21:57:18.911Z,8.60
2024-02-13T21:59:47.504Z,8.60
2024-02-13T22:02:16.039Z,8.50
2024-02-13T22:04:46.237Z,8.50
2024-02-13T22:07:14.975Z,8.40
2024-02-13T22:09:43.561Z,8.40
2024-02-13T22:12:12.155Z,8.40
2024-02-13T22:14:40.776Z,8.30
2024-02-13T22:17:09.336Z,8.30
2024-02-13T22:19:37.966Z,8.30
2024-02-13T22:22:08.142Z,8.20
2024-02-13T22:24:36.712Z,8.10
2024-02-13T22:27:05.506Z,8.00
2024-02-13T22:29:34.793Z,8.10
2024-02-13T22:32:03.417Z,8.00
2024-02-13T22:34:32.117Z,8.00
2024-02-13T22:37:00.722Z,8.00
2024-02-13T22:39:31.176Z,8.00
2024-02-13T22:41:59.935Z,8.00
2024-02-13T22:44:28.513Z,8.00
2024-02-13T22:46:57.497Z,8.00
2024-02-13T22:49:26.135Z,8.00
2024-02-13T22:51:55.145Z,8.00
2024-02-13T22:54:23.793Z,8.00
2024-02-13T22:56:54.751Z,8.00
2024-02-13T22:59:23.441Z,8.00
2024-02-13T23:01:52.097Z,8.00
2024-02-13T23:04:20.698Z,8.00
2024-02-13T23:06:49.410Z,8.20
2024-02-13T23:09:19.071Z,8.00
2024-02-13T23:11:48.681Z,8.00
2024-02-13T23:14:18.694Z,8.10
2024-02-13T23:16:47.443Z,8.10
2024-02-13T23:19:16.269Z,8.20
2024-02-13T23:21:45.207Z,8.10
2024-02-13T23:24:14.357Z,8.10
2024-02-13T23:26:43.105Z,8.10
2024-02-13T23:29:12.627Z,8.10
2024-02-13T23:31:42.701Z,8.10
2024-02-13T23:34:11.666Z,8.10
2024-02-13T23:36:40.702Z,8.10
2024-02-13T23:39:09.914Z,8.10
2024-02-13T23:41:38.638Z,8.20
2024-02-13T23:44:07.280Z,8.20
2024-02-13T23:46:35.823Z,8.20
2024-02-13T23:49:05.950Z,8.20
2024-02-13T23:51:34.655Z,8.20
2024-02-13T23:54:03.250Z,8.20
2024-02-13T23:56:32.893Z,8.40
2024-02-13T23:59:02.301Z,8.30
